createdAt,value
2022-08-31T00:00:40.109Z,85.74
2022-08-31T00:03:29.794Z,85.76
2022-08-31T00:06:00.037Z,85.86
2022-08-31T00:08:29.794Z,85.43
2022-08-31T00:10:59.097Z,85.18
2022-08-31T00:13:30.287Z,84.64
2022-08-31T00:15:58.783Z,84.41
2022-08-31T00:18:27.016Z,84.42
2022-08-31T00:20:56.021Z,84.28
2022-08-31T00:23:24.197Z,83.71
2022-08-31T00:25:52.645Z,83.77
2022-08-31T00:28:21.501Z,83.49
2022-08-31T00:30:50.365Z,83.60
2022-08-31T00:33:20.998Z,83.24
2022-08-31T00:35:49.072Z,82.90
2022-08-31T00:38:17.352Z,82.75
2022-08-31T00:40:49.285Z,82.38
2022-08-31T00:43:40.034Z,82.10
2022-08-31T00:46:10.583Z,81.74
2022-08-31T00:48:46.180Z,81.73
2022-08-31T00:51:18.826Z,81.44
2022-08-31T00:53:50.955Z,81.17
2022-08-31T00:56:20.581Z,80.88
2022-08-31T00:58:54.757Z,80.87
2022-08-31T01:01:24.441Z,80.57
2022-08-31T01:03:52.754Z,80.50
2022-08-31T01:06:23.158Z,80.12
2022-08-31T01:08:52.591Z,80.08
2022-08-31T01:11:22.001Z,79.82
2022-08-31T01:13:50.455Z,79.75
2022-08-31T01:16:38.078Z,79.51
2022-08-31T01:19:15.301Z,79.36
2022-08-31T01:22:11.142Z,78.95
2022-08-31T01:24:42.606Z,78.79
2022-08-31T01:27:12.746Z,78.46
2022-08-31T01:29:40.942Z,78.27
2022-08-31T01:32:09.932Z,78.23
2022-08-31T01:34:38.029Z,77.92
2022-08-31T01:37:06.414Z,77.41
2022-08-31T01:39:34.531Z,77.21
2022-08-31T01:42:02.606Z,76.97
2022-08-31T01:44:32.734Z,76.66
2022-08-31T01:47:01.026Z,76.27
2022-08-31T01:49:29.609Z,76.14
2022-08-31T01:51:59.111Z,75.84
2022-08-31T01:54:28.589Z,75.61
2022-08-31T01:56:57.019Z,75.16
2022-08-31T01:59:25.634Z,74.82
2022-08-31T02:01:56.381Z,74.52
2022-08-31T02:04:28.255Z,74.04
2022-08-31T02:07:01.173Z,73.69
2022-08-31T02:09:31.929Z,73.57
2022-08-31T02:12:00.226Z,73.19
2022-08-31T02:14:28.565Z,72.99
2022-08-31T02:16:56.559Z,72.50
2022-08-31T02:19:24.629Z,72.08
2022-08-31T02:21:52.796Z,71.86
2022-08-31T02:24:21.221Z,71.72
2022-08-31T02:26:53.182Z,71.18
2022-08-31T02:29:24.181Z,71.03
2022-08-31T02:31:52.761Z,71.25
2022-08-31T02:34:21.489Z,71.17
2022-08-31T02:36:51.156Z,70.55
2022-08-31T02:39:19.400Z,70.06
2022-08-31T02:41:47.434Z,69.92
2022-08-31T02:44:16.076Z,70.08
2022-08-31T02:46:44.170Z,70.06
2022-08-31T02:49:12.397Z,69.68
2022-08-31T02:51:43.000Z,69.31
2022-08-31T02:54:12.637Z,69.35
2022-08-31T02:56:40.588Z,69.06
2022-08-31T02:59:11.826Z,68.54
2022-08-31T03:01:40.612Z,68.11
2022-08-31T03:04:09.308Z,68.04
2022-08-31T03:06:38.208Z,68.39
2022-08-31T03:09:06.689Z,68.66
2022-08-31T03:11:34.942Z,69.18
2022-08-31T03:14:05.189Z,69.66
2022-08-31T03:16:33.412Z,69.81
2022-08-31T03:19:01.562Z,70.34
2022-08-31T03:21:29.680Z,70.86
2022-08-31T03:23:57.674Z,71.16
2022-08-31T03:26:25.681Z,71.21
2022-08-31T03:28:55.016Z,70.37
2022-08-31T03:31:25.261Z,70.80
2022-08-31T03:33:53.307Z,71.02
2022-08-31T03:36:21.568Z,71.28
2022-08-31T03:38:49.565Z,71.75
2022-08-31T03:41:23.229Z,71.46
2022-08-31T03:43:52.927Z,71.05
2022-08-31T03:46:21.232Z,70.52
2022-08-31T03:48:49.436Z,70.02
2022-08-31T03:51:21.206Z,69.49
2022-08-31T03:53:49.243Z,69.20
2022-08-31T03:56:17.363Z,69.12
2022-08-31T03:58:45.612Z,69.35
2022-08-31T04:01:15.230Z,69.26
2022-08-31T04:03:43.274Z,68.92
2022-08-31T04:06:13.698Z,68.89
2022-08-31T04:08:42.048Z,69.26
2022-08-31T04:11:13.754Z,69.73
2022-08-31T04:13:44.715Z,69.94
2022-08-31T04:16:16.917Z,70.58
2022-08-31T04:18:46.494Z,70.70
2022-08-31T04:21:19.758Z,70.18
2022-08-31T04:23:52.390Z,70.01
2022-08-31T04:26:29.977Z,70.17
2022-08-31T04:28:58.814Z,69.84
2022-08-31T04:31:29.055Z,69.88
2022-08-31T04:34:01.024Z,69.84
2022-08-31T04:36:29.586Z,69.32
2022-08-31T04:39:00.247Z,69.10
2022-08-31T04:41:33.152Z,68.96
2022-08-31T04:44:02.803Z,68.71
2022-08-31T04:46:41.227Z,68.77
2022-08-31T04:49:11.748Z,69.24
2022-08-31T04:51:40.098Z,69.18
2022-08-31T04:54:12.877Z,68.33
2022-08-31T04:56:43.932Z,67.93
2022-08-31T04:59:19.083Z,66.96
2022-08-31T05:01:48.665Z,65.61
2022-08-31T05:04:17.761Z,64.96
2022-08-31T05:06:47.509Z,64.96
2022-08-31T05:09:20.069Z,65.15
2022-08-31T05:11:48.447Z,65.39
2022-08-31T05:14:16.686Z,65.22
2022-08-31T05:16:46.373Z,65.31
2022-08-31T05:19:14.529Z,65.08
2022-08-31T05:21:44.060Z,64.27
2022-08-31T05:24:19.129Z,63.67
2022-08-31T05:26:50.694Z,63.02
2022-08-31T05:29:23.424Z,62.94
2022-08-31T05:31:52.883Z,62.49
2022-08-31T05:34:22.772Z,62.55
2022-08-31T05:36:53.997Z,62.58
2022-08-31T05:39:22.893Z,62.86
2022-08-31T05:41:51.051Z,62.21
2022-08-31T05:44:22.829Z,62.17
2022-08-31T05:47:03.370Z,62.33
2022-08-31T05:49:33.334Z,62.57
2022-08-31T05:52:03.242Z,62.69
2022-08-31T05:54:31.271Z,63.12
2022-08-31T05:57:01.499Z,63.61
2022-08-31T05:59:31.751Z,63.69
2022-08-31T06:02:00.513Z,63.58
2022-08-31T06:04:31.138Z,63.33
2022-08-31T06:06:59.096Z,62.75
2022-08-31T06:09:27.757Z,62.54
2022-08-31T06:11:55.838Z,62.71
2022-08-31T06:14:23.931Z,63.15
2022-08-31T06:16:52.655Z,63.38
2022-08-31T06:19:21.097Z,63.70
2022-08-31T06:21:50.574Z,64.12
2022-08-31T06:24:19.987Z,63.99
2022-08-31T06:26:58.809Z,63.89
2022-08-31T06:29:33.318Z,64.13
2022-08-31T06:32:03.862Z,64.18
2022-08-31T06:34:31.870Z,63.98
2022-08-31T06:37:00.072Z,63.75
2022-08-31T06:39:28.382Z,63.73
2022-08-31T06:41:56.768Z,63.41
2022-08-31T06:44:24.848Z,62.91
2022-08-31T06:46:55.882Z,63.01
2022-08-31T06:49:24.492Z,63.08
2022-08-31T06:51:52.527Z,63.15
2022-08-31T06:54:29.562Z,63.07
2022-08-31T06:56:59.624Z,62.95
2022-08-31T06:59:29.538Z,63.47
2022-08-31T07:02:00.454Z,63.46
2022-08-31T07:04:28.708Z,63.74
2022-08-31T07:06:56.711Z,64.04
2022-08-31T07:09:26.091Z,64.42
2022-08-31T07:11:54.267Z,64.91
2022-08-31T07:14:24.914Z,64.98
2022-08-31T07:16:58.922Z,65.33
2022-08-31T07:19:28.070Z,64.88
2022-08-31T07:22:05.408Z,64.87
2022-08-31T07:24:35.732Z,64.84
2022-08-31T07:27:09.508Z,64.74
2022-08-31T07:29:43.802Z,64.97
2022-08-31T07:32:14.802Z,65.23
2022-08-31T07:34:44.544Z,65.16
2022-08-31T07:37:31.152Z,65.12
2022-08-31T07:40:17.320Z,64.77
2022-08-31T07:42:47.683Z,64.89
2022-08-31T07:45:23.154Z,64.57
2022-08-31T07:47:55.074Z,64.29
2022-08-31T07:50:24.629Z,64.48
2022-08-31T07:52:55.361Z,64.46
2022-08-31T07:55:25.497Z,64.45
2022-08-31T07:57:55.893Z,64.55
2022-08-31T08:00:27.072Z,64.55
2022-08-31T08:02:55.786Z,64.63
2022-08-31T08:05:28.946Z,64.66
2022-08-31T08:08:11.888Z,64.92
2022-08-31T08:10:46.855Z,65.14
2022-08-31T08:13:22.869Z,64.95
2022-08-31T08:15:52.337Z,64.97
2022-08-31T08:18:21.473Z,64.98
2022-08-31T08:20:50.151Z,64.99
2022-08-31T08:23:26.682Z,65.24
2022-08-31T08:26:02.108Z,65.42
2022-08-31T08:28:40.158Z,65.59
2022-08-31T08:31:16.291Z,65.77
2022-08-31T08:33:44.600Z,65.80
2022-08-31T08:36:13.511Z,65.74
2022-08-31T08:38:44.622Z,65.54
2022-08-31T08:41:16.603Z,65.38
2022-08-31T08:43:53.201Z,65.45
2022-08-31T08:46:48.845Z,65.52
2022-08-31T08:49:36.316Z,65.65
2022-08-31T08:52:30.151Z,66.02
2022-08-31T08:55:04.865Z,66.19
2022-08-31T08:57:36.048Z,66.67
2022-08-31T09:00:12.028Z,66.85
2022-08-31T09:02:58.978Z,67.53
2022-08-31T09:05:43.844Z,68.41
2022-08-31T09:08:32.828Z,68.73
2022-08-31T09:11:21.083Z,69.12
2022-08-31T09:14:19.853Z,70.02
2022-08-31T09:17:18.778Z,70.48
2022-08-31T09:20:04.876Z,70.74
2022-08-31T09:22:51.093Z,70.72
2022-08-31T09:25:33.804Z,70.98
2022-08-31T09:28:10.661Z,71.45
2022-08-31T09:30:45.144Z,71.72
2022-08-31T09:33:48.238Z,71.81
2022-08-31T09:36:34.297Z,71.39
2022-08-31T09:39:37.154Z,70.76
2022-08-31T09:42:33.769Z,70.46
2022-08-31T09:45:14.155Z,70.13
2022-08-31T09:48:01.921Z,69.55
2022-08-31T09:50:36.275Z,69.11
2022-08-31T09:54:00.252Z,68.35
2022-08-31T09:56:29.189Z,67.68
2022-08-31T09:59:02.137Z,67.16
2022-08-31T10:01:46.535Z,66.27
2022-08-31T10:04:29.495Z,66.19
2022-08-31T10:07:23.015Z,65.90
2022-08-31T10:09:59.709Z,65.76
2022-08-31T10:12:30.624Z,65.53
2022-08-31T10:15:13.502Z,65.51
2022-08-31T10:17:57.222Z,64.98
2022-08-31T10:20:33.044Z,64.81
2022-08-31T10:23:15.319Z,64.84
2022-08-31T10:25:51.811Z,64.68
2022-08-31T10:28:32.683Z,64.57
2022-08-31T10:31:08.934Z,63.96
2022-08-31T10:34:10.033Z,62.97
2022-08-31T10:36:41.973Z,63.28
2022-08-31T10:39:42.205Z,62.30
2022-08-31T10:42:20.212Z,62.16
2022-08-31T10:45:13.307Z,62.37
2022-08-31T10:47:51.186Z,62.04
2022-08-31T10:50:28.852Z,62.05
2022-08-31T10:53:16.470Z,62.64
2022-08-31T10:56:19.372Z,63.15
2022-08-31T10:59:10.713Z,63.08
2022-08-31T11:01:54.989Z,63.15
2022-08-31T11:04:52.134Z,63.26
2022-08-31T11:07:38.539Z,63.42
2022-08-31T11:10:37.404Z,64.21
2022-08-31T11:13:17.965Z,64.72
2022-08-31T11:15:55.226Z,64.95
2022-08-31T11:18:40.707Z,65.93
2022-08-31T11:21:21.006Z,66.71
2022-08-31T11:24:21.611Z,68.01
2022-08-31T11:27:12.591Z,68.91
2022-08-31T11:29:57.185Z,69.90
2022-08-31T11:32:38.157Z,71.49
2022-08-31T11:38:03.662Z,73.37
2022-08-31T11:40:42.437Z,73.40
2022-08-31T11:43:16.731Z,74.27
2022-08-31T11:45:45.023Z,75.07
2022-08-31T11:48:53.418Z,75.84
2022-08-31T11:51:38.650Z,76.28
2022-08-31T11:54:27.519Z,76.69
2022-08-31T11:56:59.571Z,76.70
2022-08-31T11:59:35.975Z,76.99
2022-08-31T12:02:23.497Z,76.91
2022-08-31T12:04:58.185Z,77.16
2022-08-31T12:07:36.402Z,77.61
2022-08-31T12:10:18.920Z,78.67
2022-08-31T12:13:08.065Z,79.96
2022-08-31T12:16:02.397Z,81.32
2022-08-31T12:18:45.364Z,82.28
2022-08-31T12:22:12.811Z,83.25
2022-08-31T12:25:04.581Z,84.19
2022-08-31T12:27:35.595Z,84.88
2022-08-31T12:30:36.739Z,85.42
2022-08-31T12:33:12.586Z,85.91
2022-08-31T12:35:40.637Z,86.45
2022-08-31T12:38:17.398Z,86.93
2022-08-31T12:40:49.175Z,87.35
2022-08-31T12:43:49.820Z,87.57
2022-08-31T12:46:47.355Z,87.69
2022-08-31T12:49:41.875Z,87.94
2022-08-31T12:52:21.338Z,87.92
2022-08-31T12:55:13.361Z,87.83
2022-08-31T12:58:00.598Z,87.95
2022-08-31T13:00:39.984Z,88.10
2022-08-31T13:03:25.779Z,88.09
2022-08-31T13:06:09.014Z,88.25
2022-08-31T13:08:41.696Z,88.10
2022-08-31T13:11:40.803Z,88.13
2022-08-31T13:14:12.206Z,88.33
2022-08-31T13:16:43.935Z,88.48
2022-08-31T13:19:28.192Z,88.58
2022-08-31T13:21:59.850Z,88.85
2022-08-31T13:24:36.427Z,89.25
2022-08-31T13:27:18.643Z,89.18
2022-08-31T13:29:48.801Z,89.33
2022-08-31T13:32:26.027Z,89.40
2022-08-31T13:34:56.742Z,89.52
2022-08-31T13:37:41.636Z,89.72
2022-08-31T13:40:18.814Z,89.73
2022-08-31T13:42:57.221Z,89.77
2022-08-31T13:45:31.181Z,89.75
2022-08-31T13:48:05.137Z,89.88
2022-08-31T13:51:13.891Z,89.91
2022-08-31T13:53:48.931Z,89.83
2022-08-31T13:56:55.193Z,89.89
2022-08-31T13:59:27.291Z,89.94
2022-08-31T14:02:17.577Z,89.79
2022-08-31T14:05:11.774Z,89.65
2022-08-31T14:07:40.142Z,89.42
2022-08-31T14:10:20.120Z,89.18
2022-08-31T14:12:58.642Z,89.28
2022-08-31T14:15:41.690Z,89.35
2022-08-31T14:18:26.626Z,89.21
2022-08-31T14:21:20.589Z,89.34
2022-08-31T14:24:07.916Z,89.28
2022-08-31T14:26:42.316Z,88.95
2022-08-31T14:29:14.404Z,89.06
2022-08-31T14:31:54.291Z,88.87
2022-08-31T14:34:28.269Z,88.84
2022-08-31T14:37:07.416Z,88.55
2022-08-31T14:39:45.411Z,88.50
2022-08-31T14:42:21.919Z,88.34
2022-08-31T14:44:57.557Z,88.20
2022-08-31T14:47:28.892Z,88.16
2022-08-31T14:50:08.058Z,87.96
2022-08-31T14:52:38.820Z,88.27
2022-08-31T14:55:11.804Z,88.21
2022-08-31T14:57:47.379Z,88.29
2022-08-31T15:00:22.502Z,88.37
2022-08-31T15:02:55.759Z,87.96
2022-08-31T15:05:26.796Z,88.33
2022-08-31T15:07:55.885Z,88.24
2022-08-31T15:10:30.345Z,88.63
2022-08-31T15:13:06.329Z,88.91
2022-08-31T15:15:37.974Z,88.77
2022-08-31T15:18:07.178Z,89.11
2022-08-31T15:20:38.021Z,89.32
2022-08-31T15:23:07.638Z,89.18
2022-08-31T15:25:36.101Z,89.28
2022-08-31T15:28:04.907Z,89.28
2022-08-31T15:30:34.566Z,89.30
2022-08-31T15:33:02.669Z,89.21
2022-08-31T15:35:32.541Z,89.34
2022-08-31T15:38:04.942Z,89.29
2022-08-31T15:40:39.051Z,89.44
2022-08-31T15:43:10.045Z,89.55
2022-08-31T15:45:39.392Z,89.48
2022-08-31T15:48:25.931Z,89.55
2022-08-31T15:51:01.655Z,89.75
2022-08-31T15:53:31.312Z,89.84
2022-08-31T15:56:06.495Z,89.98
2022-08-31T15:58:39.565Z,90.14
2022-08-31T16:01:19.685Z,90.05
2022-08-31T16:03:57.582Z,90.14
2022-08-31T16:06:30.263Z,89.92
2022-08-31T16:08:58.889Z,89.99
2022-08-31T16:11:37.663Z,90.05
2022-08-31T16:14:11.665Z,90.24
2022-08-31T16:16:43.956Z,90.30
2022-08-31T16:19:33.351Z,90.29
2022-08-31T16:22:05.172Z,89.94
2022-08-31T16:24:36.556Z,90.03
2022-08-31T16:27:08.564Z,90.12
2022-08-31T16:29:37.598Z,89.97
2022-08-31T16:32:09.116Z,89.96
2022-08-31T16:34:57.534Z,90.25
2022-08-31T16:37:26.397Z,90.15
2022-08-31T16:39:54.589Z,90.32
2022-08-31T16:42:23.597Z,90.20
2022-08-31T16:44:51.633Z,90.16
2022-08-31T16:47:20.430Z,90.04
2022-08-31T16:49:49.521Z,90.04
2022-08-31T16:52:27.553Z,90.39
2022-08-31T16:55:01.209Z,90.19
2022-08-31T16:57:33.512Z,90.32
2022-08-31T17:00:04.170Z,90.28
2022-08-31T17:02:33.710Z,90.17
2022-08-31T17:05:05.148Z,89.93
2022-08-31T17:07:33.259Z,89.80
2022-08-31T17:10:07.756Z,89.95
2022-08-31T17:12:37.502Z,89.94
2022-08-31T17:15:07.495Z,89.86
2022-08-31T17:17:35.560Z,90.08
2022-08-31T17:20:05.086Z,90.01
2022-08-31T17:22:33.828Z,90.23
2022-08-31T17:25:05.123Z,89.95
2022-08-31T17:27:34.799Z,90.00
2022-08-31T17:30:07.738Z,90.21
2022-08-31T17:32:44.486Z,89.87
2022-08-31T17:35:19.744Z,89.96
2022-08-31T17:37:49.168Z,90.08
2022-08-31T17:40:36.309Z,90.00
2022-08-31T17:43:04.401Z,90.10
2022-08-31T17:45:32.651Z,89.83
2022-08-31T17:48:00.819Z,89.79
2022-08-31T17:50:28.918Z,89.79
2022-08-31T17:52:56.973Z,90.03
2022-08-31T17:55:25.130Z,90.02
2022-08-31T17:57:53.291Z,89.98
2022-08-31T18:00:21.411Z,90.10
2022-08-31T18:02:50.342Z,89.82
2022-08-31T18:05:18.403Z,90.07
2022-08-31T18:07:50.442Z,90.32
2022-08-31T18:10:19.488Z,90.36
2022-08-31T18:12:49.340Z,90.41
2022-08-31T18:15:19.764Z,90.52
2022-08-31T18:17:50.325Z,90.41
2022-08-31T18:20:18.986Z,90.42
2022-08-31T18:22:52.021Z,90.40
2022-08-31T18:25:21.100Z,90.50
2022-08-31T18:27:49.816Z,90.71
2022-08-31T18:30:18.939Z,90.63
2022-08-31T18:32:49.499Z,90.77
2022-08-31T18:35:18.096Z,90.79
2022-08-31T18:37:46.217Z,90.57
2022-08-31T18:40:33.157Z,90.70
2022-08-31T18:43:19.895Z,90.70
2022-08-31T18:45:52.588Z,90.85
2022-08-31T18:48:26.438Z,91.00
2022-08-31T18:50:55.736Z,90.94
2022-08-31T18:53:27.498Z,90.88
2022-08-31T18:55:57.152Z,90.91
2022-08-31T18:58:25.166Z,91.07
2022-08-31T19:00:59.438Z,90.91
2022-08-31T19:03:46.413Z,90.80
2022-08-31T19:06:25.078Z,90.86
2022-08-31T19:08:53.626Z,90.90
2022-08-31T19:11:23.660Z,91.09
2022-08-31T19:16:39.531Z,91.05
2022-08-31T19:19:07.907Z,90.86
2022-08-31T19:21:37.773Z,91.08
2022-08-31T19:24:09.303Z,91.04
2022-08-31T19:26:41.695Z,91.04
2022-08-31T19:29:14.938Z,90.96
2022-08-31T19:31:47.033Z,90.88
2022-08-31T19:34:18.526Z,90.78
2022-08-31T19:36:51.380Z,90.75
2022-08-31T19:39:27.015Z,90.83
2022-08-31T19:41:57.783Z,90.85
2022-08-31T19:44:53.371Z,90.93
2022-08-31T19:47:26.114Z,90.93
2022-08-31T19:49:54.438Z,90.79
2022-08-31T19:52:25.530Z,90.99
2022-08-31T19:54:53.585Z,90.92
2022-08-31T19:57:23.261Z,90.95
2022-08-31T19:59:51.618Z,91.06
2022-08-31T20:02:19.853Z,91.24
2022-08-31T20:04:47.949Z,91.01
2022-08-31T20:07:20.430Z,91.19
2022-08-31T20:09:48.514Z,90.92
2022-08-31T20:12:17.981Z,91.15
2022-08-31T20:14:49.011Z,90.97
2022-08-31T20:17:21.043Z,91.05
2022-08-31T20:19:50.482Z,91.20
2022-08-31T20:22:21.043Z,90.95
2022-08-31T20:24:49.092Z,91.22
2022-08-31T20:27:18.807Z,91.05
2022-08-31T20:29:49.668Z,91.12
2022-08-31T20:32:17.849Z,90.95
2022-08-31T20:34:45.814Z,91.15
2022-08-31T20:37:14.155Z,90.90
2022-08-31T20:39:43.079Z,90.85
2022-08-31T20:42:11.077Z,90.90
2022-08-31T20:44:39.404Z,90.94
2022-08-31T20:47:28.303Z,90.82
2022-08-31T20:50:02.943Z,91.06
2022-08-31T20:52:35.603Z,90.95
2022-08-31T20:55:06.208Z,91.15
2022-08-31T20:57:36.379Z,91.14
2022-08-31T21:00:06.461Z,91.12
2022-08-31T21:02:40.385Z,91.05
2022-08-31T21:05:38.069Z,91.13
2022-08-31T21:08:00.581Z,91.15
2022-08-31T21:10:37.903Z,91.05
2022-08-31T21:13:10.573Z,91.08
2022-08-31T21:15:44.982Z,91.00
2022-08-31T21:18:19.659Z,90.93
2022-08-31T21:20:49.027Z,90.82
2022-08-31T21:23:17.717Z,90.96
2022-08-31T21:25:47.384Z,90.89
2022-08-31T21:28:18.443Z,90.73
2022-08-31T21:30:50.364Z,90.63
2022-08-31T21:33:19.496Z,90.63
2022-08-31T21:35:48.561Z,90.64
2022-08-31T21:38:16.784Z,90.64
2022-08-31T21:40:51.979Z,90.81
2022-08-31T21:43:20.906Z,90.72
2022-08-31T21:45:55.166Z,90.54
2022-08-31T21:48:26.117Z,90.51
2022-08-31T21:50:55.323Z,90.68
2022-08-31T21:53:27.720Z,90.59
2022-08-31T21:55:55.726Z,90.59
2022-08-31T21:58:24.600Z,90.59
2022-08-31T22:00:53.210Z,90.64
2022-08-31T22:03:21.885Z,90.74
2022-08-31T22:05:52.227Z,90.85
2022-08-31T22:08:21.570Z,90.83
2022-08-31T22:10:49.653Z,90.67
2022-08-31T22:13:19.601Z,90.71
2022-08-31T22:15:48.555Z,90.67
2022-08-31T22:18:59.009Z,90.63
2022-08-31T22:21:08.213Z,91.00
2022-08-31T22:23:36.460Z,90.86
2022-08-31T22:26:04.498Z,90.81
2022-08-31T22:28:36.265Z,90.83
2022-08-31T22:31:05.059Z,90.54
2022-08-31T22:33:33.072Z,90.44
2022-08-31T22:36:02.651Z,90.68
2022-08-31T22:38:30.818Z,90.59
2022-08-31T22:40:58.882Z,90.66
2022-08-31T22:43:46.049Z,90.67
2022-08-31T22:46:17.386Z,90.69
2022-08-31T22:48:46.118Z,90.61
2022-08-31T22:51:22.030Z,90.63
2022-08-31T22:53:52.396Z,90.53
2022-08-31T22:56:28.091Z,90.67
2022-08-31T22:58:58.942Z,90.55
2022-08-31T23:01:30.551Z,90.72
2022-08-31T23:04:01.546Z,90.96
2022-08-31T23:06:30.978Z,90.79
2022-08-31T23:08:59.903Z,90.78
2022-08-31T23:11:29.181Z,90.55
2022-08-31T23:14:01.827Z,90.68
2022-08-31T23:16:38.824Z,90.69
2022-08-31T23:19:12.700Z,90.78
2022-08-31T23:21:52.994Z,91.08
2022-08-31T23:24:37.860Z,90.75
2022-08-31T23:27:12.198Z,90.57
2022-08-31T23:29:46.294Z,90.66
2022-08-31T23:32:18.744Z,90.76
2022-08-31T23:34:51.162Z,90.55
2022-08-31T23:37:20.387Z,90.42
2022-08-31T23:39:50.157Z,90.35
2022-08-31T23:42:18.426Z,90.69
2022-08-31T23:44:48.159Z,91.02
2022-08-31T23:47:22.209Z,91.08
2022-08-31T23:49:54.214Z,91.19
2022-08-31T23:52:27.214Z,91.15
2022-08-31T23:55:01.557Z,90.99
2022-08-31T23:57:33.619Z,91.13
